createdAt,value
2022-08-16T00:02:30.956Z,6.40
2022-08-16T00:07:37.158Z,5.97
2022-08-16T00:12:43.119Z,5.83
2022-08-16T00:17:56.526Z,5.50
2022-08-16T00:22:56.615Z,6.13
2022-08-16T00:28:03.720Z,6.17
2022-08-16T00:33:10.105Z,6.10
2022-08-16T00:38:40.718Z,6.10
2022-08-16T00:43:42.901Z,5.43
2022-08-16T00:48:45.660Z,5.90
2022-08-16T00:53:53.866Z,6.43
2022-08-16T00:59:01.240Z,5.70
2022-08-16T01:04:29.245Z,5.93
2022-08-16T01:09:15.822Z,6.17
2022-08-16T01:14:30.218Z,6.13
2022-08-16T01:19:42.143Z,6.10
2022-08-16T01:24:55.623Z,6.07
2022-08-16T01:30:28.063Z,6.67
2022-08-16T01:35:40.025Z,6.13
2022-08-16T01:40:48.563Z,7.20
2022-08-16T01:45:59.994Z,6.13
2022-08-16T01:51:16.736Z,5.87
2022-08-16T01:56:23.354Z,6.77
2022-08-16T02:01:28.128Z,7.30
2022-08-16T02:06:38.005Z,7.20
2022-08-16T02:11:48.256Z,7.40
2022-08-16T02:16:53.213Z,8.00
2022-08-16T02:22:08.976Z,7.27
2022-08-16T02:27:07.627Z,7.27
2022-08-16T02:32:50.537Z,6.57
2022-08-16T02:37:24.078Z,7.43
2022-08-16T02:42:33.127Z,7.03
2022-08-16T02:48:00.606Z,7.97
2022-08-16T02:52:50.272Z,7.43
2022-08-16T02:57:56.262Z,8.00
2022-08-16T03:03:03.777Z,7.53
2022-08-16T03:08:50.402Z,8.83
2022-08-16T03:13:21.177Z,8.17
2022-08-16T03:18:40.283Z,7.70
2022-08-16T03:23:36.451Z,8.47
2022-08-16T03:28:43.269Z,9.07
2022-08-16T03:33:52.156Z,8.93
2022-08-16T03:38:58.089Z,9.30
2022-08-16T03:44:04.060Z,9.07
2022-08-16T03:49:13.126Z,8.37
2022-08-16T03:54:20.526Z,8.40
2022-08-16T03:59:29.913Z,8.57
2022-08-16T04:04:37.071Z,8.73
2022-08-16T04:09:43.054Z,8.40
2022-08-16T04:14:49.522Z,8.30
2022-08-16T04:19:58.368Z,8.13
2022-08-16T04:25:08.211Z,7.80
2022-08-16T04:30:31.977Z,8.03
2022-08-16T04:35:34.181Z,7.47
2022-08-16T04:40:38.276Z,8.70
2022-08-16T04:45:47.789Z,8.17
2022-08-16T04:50:57.317Z,10.45
2022-08-16T04:56:11.998Z,8.27
2022-08-16T05:01:18.834Z,7.70
2022-08-16T05:06:42.224Z,8.57
2022-08-16T05:11:32.344Z,7.47
2022-08-16T05:16:39.213Z,6.87
2022-08-16T05:21:46.520Z,8.60
2022-08-16T05:26:52.289Z,7.53
2022-08-16T05:31:58.577Z,7.83
2022-08-16T05:37:04.908Z,7.37
2022-08-16T05:42:12.258Z,9.23
2022-08-16T05:47:18.532Z,8.87
2022-08-16T05:52:27.894Z,8.60
2022-08-16T05:57:35.603Z,9.20
2022-08-16T06:02:41.689Z,8.83
2022-08-16T06:08:05.986Z,9.57
2022-08-16T06:13:13.391Z,7.83
2022-08-16T06:18:21.514Z,7.87
2022-08-16T06:23:28.823Z,7.90
2022-08-16T06:28:37.664Z,8.30
2022-08-16T06:33:46.917Z,7.93
2022-08-16T06:38:56.625Z,7.33
2022-08-16T06:44:04.290Z,7.87
2022-08-16T06:49:13.547Z,7.17
2022-08-16T06:54:20.233Z,7.93
2022-08-16T06:59:26.133Z,7.00
2022-08-16T07:04:37.107Z,6.70
2022-08-16T07:09:49.753Z,6.57
2022-08-16T07:14:59.996Z,6.90
2022-08-16T07:20:34.889Z,6.60
2022-08-16T07:25:17.231Z,7.00
2022-08-16T07:30:39.636Z,6.43
2022-08-16T07:35:32.048Z,6.60
2022-08-16T07:41:00.117Z,6.30
2022-08-16T07:45:53.122Z,6.23
2022-08-16T07:50:59.708Z,7.30
2022-08-16T07:56:04.456Z,6.70
2022-08-16T08:01:24.817Z,7.43
2022-08-16T08:06:34.359Z,7.03
2022-08-16T08:12:00.717Z,7.40
2022-08-16T08:16:53.775Z,6.87
2022-08-16T08:22:05.860Z,6.70
2022-08-16T08:27:10.637Z,5.97
2022-08-16T08:32:46.746Z,6.60
2022-08-16T08:37:24.261Z,6.80
2022-08-16T08:42:31.800Z,6.20
2022-08-16T08:47:39.824Z,6.80
2022-08-16T08:52:48.319Z,6.27
2022-08-16T08:57:54.402Z,5.97
2022-08-16T09:03:04.831Z,6.23
2022-08-16T09:08:17.359Z,5.47
2022-08-16T09:13:23.362Z,6.40
2022-08-16T09:18:35.723Z,5.63
2022-08-16T09:23:37.750Z,5.77
2022-08-16T09:29:14.985Z,6.20
2022-08-16T09:33:54.925Z,5.17
2022-08-16T09:39:03.778Z,5.33
2022-08-16T09:45:11.952Z,5.63
2022-08-16T09:49:19.896Z,5.33
2022-08-16T09:54:32.409Z,5.80
2022-08-16T09:59:38.517Z,5.53
2022-08-16T10:04:54.496Z,6.13
2022-08-16T10:09:55.492Z,5.63
2022-08-16T10:14:59.824Z,6.50
2022-08-16T10:20:06.784Z,5.80
2022-08-16T10:27:19.481Z,5.67
2022-08-16T10:30:26.141Z,5.80
2022-08-16T10:35:32.930Z,6.47
2022-08-16T10:40:36.018Z,6.50
2022-08-16T10:45:43.239Z,6.45
2022-08-16T10:50:51.471Z,6.28
2022-08-16T10:56:01.430Z,5.85
2022-08-16T11:06:21.453Z,5.90
2022-08-16T11:11:26.949Z,6.22
2022-08-16T11:32:04.641Z,6.42
2022-08-16T11:37:27.271Z,5.62
2022-08-16T11:42:28.205Z,6.13
2022-08-16T11:47:27.291Z,5.67
2022-08-16T11:52:34.041Z,6.20
2022-08-16T11:57:41.387Z,6.08
2022-08-16T12:02:47.960Z,5.72
2022-08-16T12:07:55.389Z,6.05
2022-08-16T12:13:02.733Z,5.72
2022-08-16T12:18:09.691Z,6.40
2022-08-16T12:23:15.249Z,6.45
2022-08-16T12:28:37.054Z,5.92
2022-08-16T12:33:32.019Z,6.00
2022-08-16T12:38:46.772Z,6.92
2022-08-16T12:43:46.619Z,6.45
2022-08-16T12:48:58.916Z,6.80
2022-08-16T12:54:07.594Z,6.20
2022-08-16T12:59:19.769Z,6.55
2022-08-16T13:04:24.695Z,5.60
2022-08-16T13:09:31.660Z,5.83
2022-08-16T13:14:41.517Z,6.25
2022-08-16T13:24:56.542Z,6.30
2022-08-16T13:30:02.758Z,7.28
2022-08-16T13:35:11.690Z,7.37
2022-08-16T13:40:19.655Z,6.92
2022-08-16T13:45:26.275Z,7.15
2022-08-16T13:50:49.355Z,7.03
2022-08-16T13:55:40.927Z,7.28
2022-08-16T14:00:46.751Z,6.85
2022-08-16T14:05:54.053Z,6.92
2022-08-16T14:10:59.619Z,7.12
2022-08-16T14:16:12.643Z,7.05
2022-08-16T14:21:13.306Z,7.60
2022-08-16T14:26:19.954Z,8.03
2022-08-16T14:31:27.086Z,7.17
2022-08-16T14:36:34.025Z,7.00
2022-08-16T14:41:40.976Z,7.08
2022-08-16T14:46:46.556Z,8.43
2022-08-16T14:51:52.330Z,8.18
2022-08-16T14:56:58.318Z,7.17
2022-08-16T15:02:05.169Z,7.85
2022-08-16T15:07:12.715Z,7.37
2022-08-16T15:12:27.077Z,7.50
2022-08-16T15:17:34.053Z,7.12
2022-08-16T15:22:39.345Z,6.90
2022-08-16T15:27:54.672Z,7.10
2022-08-16T15:32:57.427Z,6.95
2022-08-16T15:38:08.909Z,6.70
2022-08-16T15:43:11.990Z,7.08
2022-08-16T15:48:17.815Z,6.78
2022-08-16T15:53:27.584Z,7.08
2022-08-16T15:58:38.625Z,7.17
2022-08-16T16:03:42.233Z,6.80
2022-08-16T16:08:49.103Z,7.17
2022-08-16T16:13:56.693Z,6.62
2022-08-16T16:19:03.109Z,6.45
2022-08-16T16:24:21.028Z,6.40
2022-08-16T16:29:16.253Z,7.33
2022-08-16T16:34:23.858Z,6.37
2022-08-16T16:39:32.647Z,6.50
2022-08-16T16:44:38.783Z,6.00
2022-08-16T16:49:45.983Z,5.90
2022-08-16T16:54:51.489Z,6.00
2022-08-16T16:59:58.778Z,5.90
2022-08-16T17:05:08.494Z,5.80
2022-08-16T17:10:14.288Z,5.33
2022-08-16T17:15:23.337Z,5.75
2022-08-16T17:20:30.120Z,6.17
2022-08-16T17:30:45.074Z,5.62
2022-08-16T17:35:55.179Z,6.25
2022-08-16T17:39:26.769Z,6.25
2022-08-16T17:41:00.570Z,7.50
2022-08-16T17:46:41.427Z,5.85
2022-08-16T17:51:15.724Z,5.80
2022-08-16T17:56:21.484Z,5.85
2022-08-16T18:01:28.315Z,5.83
2022-08-16T18:06:33.834Z,5.97
2022-08-16T18:11:41.110Z,5.85
2022-08-16T18:16:49.345Z,6.37
2022-08-16T18:22:16.119Z,5.97
2022-08-16T18:27:25.646Z,6.20
2022-08-16T18:32:30.662Z,6.50
2022-08-16T18:37:36.195Z,6.60
2022-08-16T18:42:43.462Z,6.13
2022-08-16T18:47:49.267Z,6.30
2022-08-16T18:52:58.086Z,6.20
2022-08-16T18:58:04.085Z,5.50
2022-08-16T19:03:19.375Z,5.80
2022-08-16T19:08:25.052Z,5.73
2022-08-16T19:13:33.566Z,5.77
2022-08-16T19:18:39.242Z,6.40
2022-08-16T19:23:45.535Z,7.10
2022-08-16T19:28:59.018Z,6.03
2022-08-16T19:33:59.931Z,6.10
2022-08-16T19:39:11.465Z,5.97
2022-08-16T19:44:20.288Z,6.27
2022-08-16T19:49:25.941Z,6.33
2022-08-16T19:54:31.534Z,6.30
2022-08-16T19:59:40.963Z,5.93
2022-08-16T20:04:48.661Z,6.33
2022-08-16T20:09:54.666Z,6.10
2022-08-16T20:15:00.225Z,6.23
2022-08-16T20:20:08.144Z,5.97
2022-08-16T20:25:18.820Z,5.97
2022-08-16T20:30:24.844Z,6.30
2022-08-16T20:35:30.868Z,6.57
2022-08-16T20:40:36.734Z,6.97
2022-08-16T20:45:45.190Z,6.13
2022-08-16T20:50:50.864Z,6.63
2022-08-16T20:55:56.865Z,7.37
2022-08-16T21:01:03.528Z,6.60
2022-08-16T21:06:09.372Z,7.03
2022-08-16T21:11:16.482Z,6.70
2022-08-16T21:16:22.656Z,6.30
2022-08-16T21:21:32.013Z,7.27
2022-08-16T21:26:38.855Z,6.57
2022-08-16T21:31:44.776Z,6.33
2022-08-16T21:36:50.442Z,6.87
2022-08-16T21:41:55.922Z,7.00
2022-08-16T21:47:01.471Z,6.90
2022-08-16T21:52:08.756Z,7.27
2022-08-16T21:57:14.341Z,6.33
2022-08-16T22:02:22.686Z,7.37
2022-08-16T22:07:28.331Z,7.70
2022-08-16T22:12:34.121Z,6.87
2022-08-16T22:17:40.596Z,7.57
2022-08-16T22:22:48.542Z,7.17
2022-08-16T22:27:54.177Z,7.23
2022-08-16T22:32:59.848Z,6.83
2022-08-16T22:38:55.242Z,6.73
2022-08-16T22:43:14.364Z,7.47
2022-08-16T22:48:20.138Z,6.87
2022-08-16T22:53:27.122Z,7.57
2022-08-16T22:58:36.317Z,7.37
2022-08-16T23:03:40.161Z,6.93
2022-08-16T23:08:46.068Z,6.83
2022-08-16T23:13:54.862Z,7.47
2022-08-16T23:19:00.783Z,7.47
2022-08-16T23:24:07.024Z,8.27
2022-08-16T23:29:22.484Z,7.10
2022-08-16T23:34:19.938Z,7.87
2022-08-16T23:39:25.965Z,7.77
2022-08-16T23:44:41.890Z,8.97
2022-08-16T23:49:57.594Z,7.30
2022-08-16T23:54:46.496Z,8.00
2022-08-16T23:59:53.758Z,7.47
